sensor_id;sensor_type;location;lat;lon;timestamp;P1;durP1;ratioP1;P2;durP2;ratioP2
16139;SDS011;8175;49.326;12.690;2022-11-15T00:01:37;4.53;;;3.73;;
16139;SDS011;8175;49.326;12.690;2022-11-15T00:04:03;6.27;;;4.40;;
16139;SDS011;8175;49.326;12.690;2022-11-15T00:06:29;6.17;;;4.03;;
16139;SDS011;8175;49.326;12.690;2022-11-15T00:08:57;6.03;;;4.53;;
16139;SDS011;8175;49.326;12.690;2022-11-15T00:11:24;8.40;;;4.10;;
16139;SDS011;8175;49.326;12.690;2022-11-15T00:13:50;4.17;;;3.37;;
16139;SDS011;8175;49.326;12.690;2022-11-15T00:16:17;4.47;;;3.43;;
16139;SDS011;8175;49.326;12.690;2022-11-15T00:18:42;5.77;;;4.00;;
16139;SDS011;8175;49.326;12.690;2022-11-15T00:21:09;4.17;;;3.63;;
16139;SDS011;8175;49.326;12.690;2022-11-15T00:23:37;6.90;;;3.77;;
16139;SDS011;8175;49.326;12.690;2022-11-15T00:26:03;5.17;;;4.20;;
16139;SDS011;8175;49.326;12.690;2022-11-15T00:28:29;9.13;;;3.93;;
16139;SDS011;8175;49.326;12.690;2022-11-15T00:31:01;6.63;;;4.50;;
16139;SDS011;8175;49.326;12.690;2022-11-15T00:33:29;6.63;;;4.30;;
16139;SDS011;8175;49.326;12.690;2022-11-15T00:36:05;5.90;;;4.07;;
16139;SDS011;8175;49.326;12.690;2022-11-15T00:38:34;4.90;;;3.97;;
16139;SDS011;8175;49.326;12.690;2022-11-15T00:41:01;4.93;;;3.63;;
16139;SDS011;8175;49.326;12.690;2022-11-15T00:43:28;6.30;;;4.70;;
16139;SDS011;8175;49.326;12.690;2022-11-15T00:45:53;6.93;;;4.50;;
16139;SDS011;8175;49.326;12.690;2022-11-15T00:48:19;5.40;;;4.20;;
16139;SDS011;8175;49.326;12.690;2022-11-15T00:50:45;7.07;;;5.20;;
16139;SDS011;8175;49.326;12.690;2022-11-15T00:53:11;6.87;;;4.40;;
16139;SDS011;8175;49.326;12.690;2022-11-15T00:55:36;7.63;;;4.00;;
16139;SDS011;8175;49.326;12.690;2022-11-15T00:58:02;6.00;;;4.70;;
16139;SDS011;8175;49.326;12.690;2022-11-15T01:00:28;5.33;;;4.10;;
16139;SDS011;8175;49.326;12.690;2022-11-15T01:02:53;5.60;;;3.60;;
16139;SDS011;8175;49.326;12.690;2022-11-15T01:05:19;5.47;;;4.00;;
16139;SDS011;8175;49.326;12.690;2022-11-15T01:07:45;4.53;;;3.60;;
16139;SDS011;8175;49.326;12.690;2022-11-15T01:10:11;4.80;;;3.20;;
16139;SDS011;8175;49.326;12.690;2022-11-15T01:12:37;5.47;;;3.30;;
16139;SDS011;8175;49.326;12.690;2022-11-15T01:15:03;4.33;;;3.70;;
16139;SDS011;8175;49.326;12.690;2022-11-15T01:17:30;3.53;;;3.03;;
16139;SDS011;8175;49.326;12.690;2022-11-15T01:19:56;4.53;;;3.63;;
16139;SDS011;8175;49.326;12.690;2022-11-15T01:22:21;6.23;;;3.60;;
16139;SDS011;8175;49.326;12.690;2022-11-15T01:24:49;4.30;;;3.80;;
16139;SDS011;8175;49.326;12.690;2022-11-15T01:27:16;6.00;;;3.80;;
16139;SDS011;8175;49.326;12.690;2022-11-15T01:29:41;4.63;;;3.43;;
16139;SDS011;8175;49.326;12.690;2022-11-15T01:32:07;4.40;;;3.30;;
16139;SDS011;8175;49.326;12.690;2022-11-15T01:34:33;5.10;;;3.80;;
16139;SDS011;8175;49.326;12.690;2022-11-15T01:36:58;5.30;;;3.40;;
16139;SDS011;8175;49.326;12.690;2022-11-15T01:39:24;4.80;;;3.73;;
16139;SDS011;8175;49.326;12.690;2022-11-15T01:41:50;4.63;;;3.57;;
16139;SDS011;8175;49.326;12.690;2022-11-15T01:47:10;3.67;;;3.00;;
16139;SDS011;8175;49.326;12.690;2022-11-15T01:49:40;5.17;;;3.40;;
16139;SDS011;8175;49.326;12.690;2022-11-15T01:52:30;4.33;;;3.33;;
16139;SDS011;8175;49.326;12.690;2022-11-15T01:55:04;5.27;;;3.17;;
16139;SDS011;8175;49.326;12.690;2022-11-15T01:57:30;6.37;;;3.37;;
16139;SDS011;8175;49.326;12.690;2022-11-15T01:59:56;4.33;;;2.77;;
16139;SDS011;8175;49.326;12.690;2022-11-15T02:02:23;4.17;;;3.07;;
16139;SDS011;8175;49.326;12.690;2022-11-15T02:04:49;3.23;;;2.90;;
16139;SDS011;8175;49.326;12.690;2022-11-15T02:07:15;4.40;;;3.40;;
16139;SDS011;8175;49.326;12.690;2022-11-15T02:09:43;4.17;;;3.03;;
16139;SDS011;8175;49.326;12.690;2022-11-15T02:12:10;5.40;;;4.03;;
16139;SDS011;8175;49.326;12.690;2022-11-15T02:14:38;5.70;;;3.70;;
16139;SDS011;8175;49.326;12.690;2022-11-15T02:28:41;5.27;;;3.40;;
16139;SDS011;8175;49.326;12.690;2022-11-15T02:36:59;3.97;;;3.07;;
16139;SDS011;8175;49.326;12.690;2022-11-15T02:39:44;6.30;;;3.73;;
16139;SDS011;8175;49.326;12.690;2022-11-15T02:42:20;4.50;;;3.33;;
16139;SDS011;8175;49.326;12.690;2022-11-15T02:45:09;5.83;;;3.43;;
16139;SDS011;8175;49.326;12.690;2022-11-15T02:47:41;5.37;;;3.30;;
16139;SDS011;8175;49.326;12.690;2022-11-15T02:50:11;4.57;;;3.60;;
16139;SDS011;8175;49.326;12.690;2022-11-15T02:52:44;4.67;;;3.27;;
16139;SDS011;8175;49.326;12.690;2022-11-15T03:01:00;5.00;;;3.87;;
16139;SDS011;8175;49.326;12.690;2022-11-15T03:06:30;5.93;;;3.70;;
16139;SDS011;8175;49.326;12.690;2022-11-15T03:09:15;7.47;;;4.57;;
16139;SDS011;8175;49.326;12.690;2022-11-15T03:12:00;4.63;;;3.33;;
16139;SDS011;8175;49.326;12.690;2022-11-15T03:14:36;6.77;;;4.30;;
16139;SDS011;8175;49.326;12.690;2022-11-15T03:17:18;5.47;;;3.57;;
16139;SDS011;8175;49.326;12.690;2022-11-15T03:19:54;6.87;;;3.87;;
16139;SDS011;8175;49.326;12.690;2022-11-15T03:22:24;4.53;;;4.13;;
16139;SDS011;8175;49.326;12.690;2022-11-15T03:24:57;6.20;;;3.70;;
16139;SDS011;8175;49.326;12.690;2022-11-15T03:27:28;4.47;;;3.40;;
16139;SDS011;8175;49.326;12.690;2022-11-15T03:29:59;6.03;;;4.03;;
16139;SDS011;8175;49.326;12.690;2022-11-15T03:32:28;3.90;;;3.23;;
16139;SDS011;8175;49.326;12.690;2022-11-15T03:35:04;5.17;;;3.57;;
16139;SDS011;8175;49.326;12.690;2022-11-15T03:40:09;4.57;;;3.30;;
16139;SDS011;8175;49.326;12.690;2022-11-15T03:43:23;5.13;;;3.30;;
16139;SDS011;8175;49.326;12.690;2022-11-15T03:45:34;5.03;;;3.47;;
16139;SDS011;8175;49.326;12.690;2022-11-15T03:48:12;4.53;;;3.60;;
16139;SDS011;8175;49.326;12.690;2022-11-15T03:50:41;4.40;;;3.13;;
16139;SDS011;8175;49.326;12.690;2022-11-15T03:53:08;5.47;;;3.40;;
16139;SDS011;8175;49.326;12.690;2022-11-15T03:55:35;4.47;;;3.00;;
16139;SDS011;8175;49.326;12.690;2022-11-15T03:58:00;4.40;;;3.17;;
16139;SDS011;8175;49.326;12.690;2022-11-15T04:00:27;5.63;;;3.17;;
16139;SDS011;8175;49.326;12.690;2022-11-15T04:02:53;3.70;;;2.87;;
16139;SDS011;8175;49.326;12.690;2022-11-15T04:05:19;5.07;;;3.03;;
16139;SDS011;8175;49.326;12.690;2022-11-15T04:07:45;4.10;;;3.27;;
16139;SDS011;8175;49.326;12.690;2022-11-15T04:10:11;4.60;;;3.70;;
16139;SDS011;8175;49.326;12.690;2022-11-15T04:12:38;4.47;;;3.13;;
16139;SDS011;8175;49.326;12.690;2022-11-15T04:15:11;4.03;;;3.10;;
16139;SDS011;8175;49.326;12.690;2022-11-15T04:17:40;3.90;;;3.00;;
16139;SDS011;8175;49.326;12.690;2022-11-15T04:20:12;3.87;;;2.97;;
16139;SDS011;8175;49.326;12.690;2022-11-15T04:23:17;3.03;;;2.73;;
16139;SDS011;8175;49.326;12.690;2022-11-15T04:26:06;4.17;;;3.33;;
16139;SDS011;8175;49.326;12.690;2022-11-15T04:28:33;3.97;;;3.30;;
16139;SDS011;8175;49.326;12.690;2022-11-15T04:30:59;5.70;;;3.90;;
16139;SDS011;8175;49.326;12.690;2022-11-15T04:33:24;4.77;;;3.13;;
16139;SDS011;8175;49.326;12.690;2022-11-15T04:35:50;6.00;;;4.27;;
16139;SDS011;8175;49.326;12.690;2022-11-15T04:38:36;3.73;;;3.20;;
16139;SDS011;8175;49.326;12.690;2022-11-15T04:41:02;4.37;;;2.97;;
16139;SDS011;8175;49.326;12.690;2022-11-15T04:43:28;6.37;;;3.10;;
16139;SDS011;8175;49.326;12.690;2022-11-15T04:45:54;3.43;;;2.90;;
16139;SDS011;8175;49.326;12.690;2022-11-15T04:48:20;5.00;;;3.37;;
16139;SDS011;8175;49.326;12.690;2022-11-15T04:50:49;4.07;;;3.03;;
16139;SDS011;8175;49.326;12.690;2022-11-15T04:53:14;5.90;;;3.73;;
16139;SDS011;8175;49.326;12.690;2022-11-15T04:55:43;4.17;;;3.70;;
16139;SDS011;8175;49.326;12.690;2022-11-15T04:58:10;5.13;;;3.00;;
16139;SDS011;8175;49.326;12.690;2022-11-15T05:00:35;3.60;;;2.93;;
16139;SDS011;8175;49.326;12.690;2022-11-15T05:03:01;5.03;;;3.40;;
16139;SDS011;8175;49.326;12.690;2022-11-15T05:05:45;3.97;;;3.07;;
16139;SDS011;8175;49.326;12.690;2022-11-15T05:08:11;6.20;;;4.57;;
16139;SDS011;8175;49.326;12.690;2022-11-15T05:10:36;5.90;;;4.17;;
16139;SDS011;8175;49.326;12.690;2022-11-15T05:13:02;6.40;;;3.47;;
16139;SDS011;8175;49.326;12.690;2022-11-15T05:15:27;3.27;;;2.70;;
16139;SDS011;8175;49.326;12.690;2022-11-15T05:17:57;3.57;;;2.73;;
16139;SDS011;8175;49.326;12.690;2022-11-15T05:20:24;5.33;;;2.67;;
16139;SDS011;8175;49.326;12.690;2022-11-15T05:22:49;3.87;;;2.80;;
16139;SDS011;8175;49.326;12.690;2022-11-15T05:25:15;3.50;;;2.80;;
16139;SDS011;8175;49.326;12.690;2022-11-15T05:27:41;3.83;;;2.90;;
16139;SDS011;8175;49.326;12.690;2022-11-15T05:30:07;5.50;;;2.70;;
16139;SDS011;8175;49.326;12.690;2022-11-15T05:32:33;4.90;;;3.47;;
16139;SDS011;8175;49.326;12.690;2022-11-15T05:34:58;8.27;;;4.83;;
16139;SDS011;8175;49.326;12.690;2022-11-15T05:37:24;5.20;;;4.23;;
16139;SDS011;8175;49.326;12.690;2022-11-15T05:39:49;4.20;;;3.00;;
16139;SDS011;8175;49.326;12.690;2022-11-15T05:42:15;24.03;;;14.93;;
16139;SDS011;8175;49.326;12.690;2022-11-15T05:44:43;10.23;;;6.80;;
16139;SDS011;8175;49.326;12.690;2022-11-15T05:47:13;6.00;;;4.47;;
16139;SDS011;8175;49.326;12.690;2022-11-15T05:49:43;5.63;;;4.20;;
16139;SDS011;8175;49.326;12.690;2022-11-15T05:52:11;9.33;;;5.80;;
16139;SDS011;8175;49.326;12.690;2022-11-15T05:54:39;11.57;;;7.80;;
16139;SDS011;8175;49.326;12.690;2022-11-15T05:57:05;14.30;;;8.90;;
16139;SDS011;8175;49.326;12.690;2022-11-15T05:59:31;7.03;;;4.13;;
16139;SDS011;8175;49.326;12.690;2022-11-15T06:01:58;3.67;;;3.20;;
16139;SDS011;8175;49.326;12.690;2022-11-15T06:04:24;5.77;;;3.07;;
16139;SDS011;8175;49.326;12.690;2022-11-15T06:06:50;5.33;;;3.50;;
16139;SDS011;8175;49.326;12.690;2022-11-15T06:09:15;5.10;;;3.60;;
16139;SDS011;8175;49.326;12.690;2022-11-15T06:11:41;4.10;;;3.43;;
16139;SDS011;8175;49.326;12.690;2022-11-15T06:14:06;5.90;;;3.37;;
16139;SDS011;8175;49.326;12.690;2022-11-15T06:16:32;3.83;;;3.00;;
16139;SDS011;8175;49.326;12.690;2022-11-15T06:18:58;4.40;;;3.10;;
16139;SDS011;8175;49.326;12.690;2022-11-15T06:21:24;5.33;;;3.40;;
16139;SDS011;8175;49.326;12.690;2022-11-15T06:23:52;4.63;;;3.17;;
16139;SDS011;8175;49.326;12.690;2022-11-15T06:26:18;5.10;;;3.57;;
16139;SDS011;8175;49.326;12.690;2022-11-15T06:28:44;4.50;;;3.23;;
16139;SDS011;8175;49.326;12.690;2022-11-15T06:31:10;3.67;;;2.90;;
16139;SDS011;8175;49.326;12.690;2022-11-15T06:33:36;4.40;;;2.90;;
16139;SDS011;8175;49.326;12.690;2022-11-15T06:36:03;5.77;;;3.90;;
16139;SDS011;8175;49.326;12.690;2022-11-15T06:38:30;3.97;;;3.50;;
16139;SDS011;8175;49.326;12.690;2022-11-15T06:41:00;5.83;;;3.57;;
16139;SDS011;8175;49.326;12.690;2022-11-15T06:43:29;3.83;;;3.37;;
16139;SDS011;8175;49.326;12.690;2022-11-15T06:45:57;4.03;;;2.83;;
16139;SDS011;8175;49.326;12.690;2022-11-15T06:48:24;3.87;;;3.20;;
16139;SDS011;8175;49.326;12.690;2022-11-15T06:50:53;4.50;;;3.53;;
16139;SDS011;8175;49.326;12.690;2022-11-15T06:53:20;4.30;;;3.33;;
16139;SDS011;8175;49.326;12.690;2022-11-15T06:55:46;4.07;;;3.30;;
16139;SDS011;8175;49.326;12.690;2022-11-15T06:58:12;5.03;;;4.07;;
16139;SDS011;8175;49.326;12.690;2022-11-15T07:00:38;4.60;;;3.93;;
16139;SDS011;8175;49.326;12.690;2022-11-15T07:03:03;9.83;;;7.00;;
16139;SDS011;8175;49.326;12.690;2022-11-15T07:05:30;11.07;;;7.63;;
16139;SDS011;8175;49.326;12.690;2022-11-15T07:07:56;79.17;;;41.10;;
16139;SDS011;8175;49.326;12.690;2022-11-15T07:10:23;15.73;;;10.93;;
16139;SDS011;8175;49.326;12.690;2022-11-15T07:12:50;77.00;;;38.67;;
16139;SDS011;8175;49.326;12.690;2022-11-15T07:15:16;157.40;;;74.00;;
16139;SDS011;8175;49.326;12.690;2022-11-15T07:17:43;102.73;;;48.07;;
16139;SDS011;8175;49.326;12.690;2022-11-15T07:20:09;26.87;;;16.17;;
16139;SDS011;8175;49.326;12.690;2022-11-15T07:22:36;22.93;;;14.70;;
16139;SDS011;8175;49.326;12.690;2022-11-15T07:25:02;19.00;;;13.13;;
16139;SDS011;8175;49.326;12.690;2022-11-15T07:27:28;17.33;;;12.37;;
16139;SDS011;8175;49.326;12.690;2022-11-15T07:29:54;14.97;;;11.20;;
16139;SDS011;8175;49.326;12.690;2022-11-15T07:32:19;17.53;;;13.57;;
16139;SDS011;8175;49.326;12.690;2022-11-15T07:34:45;14.80;;;10.73;;
16139;SDS011;8175;49.326;12.690;2022-11-15T07:37:11;9.10;;;7.23;;
16139;SDS011;8175;49.326;12.690;2022-11-15T07:39:36;12.40;;;8.83;;
16139;SDS011;8175;49.326;12.690;2022-11-15T07:42:02;25.67;;;16.27;;
16139;SDS011;8175;49.326;12.690;2022-11-15T07:44:46;28.37;;;19.30;;
16139;SDS011;8175;49.326;12.690;2022-11-15T07:47:12;29.17;;;17.00;;
16139;SDS011;8175;49.326;12.690;2022-11-15T07:49:38;18.10;;;15.60;;
16139;SDS011;8175;49.326;12.690;2022-11-15T07:52:03;13.60;;;10.73;;
16139;SDS011;8175;49.326;12.690;2022-11-15T07:54:29;10.20;;;8.60;;
16139;SDS011;8175;49.326;12.690;2022-11-15T07:56:55;9.17;;;7.67;;
16139;SDS011;8175;49.326;12.690;2022-11-15T07:59:20;9.83;;;8.57;;
16139;SDS011;8175;49.326;12.690;2022-11-15T08:01:46;13.87;;;8.33;;
16139;SDS011;8175;49.326;12.690;2022-11-15T08:04:11;19.30;;;13.17;;
16139;SDS011;8175;49.326;12.690;2022-11-15T08:06:37;24.73;;;17.80;;
16139;SDS011;8175;49.326;12.690;2022-11-15T08:09:03;15.83;;;11.63;;
16139;SDS011;8175;49.326;12.690;2022-11-15T08:11:29;15.93;;;11.57;;
16139;SDS011;8175;49.326;12.690;2022-11-15T08:13:54;10.47;;;8.73;;
16139;SDS011;8175;49.326;12.690;2022-11-15T08:16:20;8.67;;;7.63;;
16139;SDS011;8175;49.326;12.690;2022-11-15T08:18:46;8.17;;;6.70;;
16139;SDS011;8175;49.326;12.690;2022-11-15T08:21:17;32.73;;;18.70;;
16139;SDS011;8175;49.326;12.690;2022-11-15T08:23:44;19.17;;;12.43;;
16139;SDS011;8175;49.326;12.690;2022-11-15T08:26:10;14.63;;;11.60;;
16139;SDS011;8175;49.326;12.690;2022-11-15T08:28:36;14.30;;;10.90;;
16139;SDS011;8175;49.326;12.690;2022-11-15T08:31:02;17.30;;;12.03;;
16139;SDS011;8175;49.326;12.690;2022-11-15T08:33:29;20.40;;;14.30;;
16139;SDS011;8175;49.326;12.690;2022-11-15T08:36:01;13.70;;;9.17;;
16139;SDS011;8175;49.326;12.690;2022-11-15T08:38:26;10.33;;;6.70;;
16139;SDS011;8175;49.326;12.690;2022-11-15T08:40:58;7.57;;;4.57;;
16139;SDS011;8175;49.326;12.690;2022-11-15T08:43:27;6.77;;;4.80;;
16139;SDS011;8175;49.326;12.690;2022-11-15T08:45:55;7.30;;;6.07;;
16139;SDS011;8175;49.326;12.690;2022-11-15T08:48:22;6.07;;;5.30;;
16139;SDS011;8175;49.326;12.690;2022-11-15T08:50:47;5.77;;;4.27;;
16139;SDS011;8175;49.326;12.690;2022-11-15T08:53:13;5.53;;;4.93;;
16139;SDS011;8175;49.326;12.690;2022-11-15T08:55:39;4.90;;;4.40;;
16139;SDS011;8175;49.326;12.690;2022-11-15T08:58:05;4.80;;;4.30;;
16139;SDS011;8175;49.326;12.690;2022-11-15T09:00:32;4.47;;;4.00;;
16139;SDS011;8175;49.326;12.690;2022-11-15T09:02:58;3.00;;;2.73;;
16139;SDS011;8175;49.326;12.690;2022-11-15T09:05:24;3.87;;;3.30;;
16139;SDS011;8175;49.326;12.690;2022-11-15T09:07:53;4.77;;;3.87;;
16139;SDS011;8175;49.326;12.690;2022-11-15T09:10:20;3.90;;;3.53;;
16139;SDS011;8175;49.326;12.690;2022-11-15T09:12:45;3.00;;;2.63;;
16139;SDS011;8175;49.326;12.690;2022-11-15T09:15:13;4.63;;;3.80;;
16139;SDS011;8175;49.326;12.690;2022-11-15T09:17:39;4.30;;;3.27;;
16139;SDS011;8175;49.326;12.690;2022-11-15T09:20:05;3.83;;;2.80;;
16139;SDS011;8175;49.326;12.690;2022-11-15T09:22:32;3.87;;;3.50;;
16139;SDS011;8175;49.326;12.690;2022-11-15T09:24:57;6.75;;;5.45;;
16139;SDS011;8175;49.326;12.690;2022-11-15T09:27:27;5.82;;;4.70;;
16139;SDS011;8175;49.326;12.690;2022-11-15T09:29:53;12.52;;;9.50;;
16139;SDS011;8175;49.326;12.690;2022-11-15T09:32:18;14.23;;;11.50;;
16139;SDS011;8175;49.326;12.690;2022-11-15T09:34:44;14.32;;;11.32;;
16139;SDS011;8175;49.326;12.690;2022-11-15T09:37:10;13.68;;;11.15;;
16139;SDS011;8175;49.326;12.690;2022-11-15T09:39:37;15.27;;;11.32;;
16139;SDS011;8175;49.326;12.690;2022-11-15T09:47:37;6.03;;;5.45;;
16139;SDS011;8175;49.326;12.690;2022-11-15T09:50:15;4.97;;;4.32;;
16139;SDS011;8175;49.326;12.690;2022-11-15T09:52:52;8.00;;;7.20;;
16139;SDS011;8175;49.326;12.690;2022-11-15T09:55:28;7.25;;;6.55;;
16139;SDS011;8175;49.326;12.690;2022-11-15T09:58:07;11.65;;;10.07;;
16139;SDS011;8175;49.326;12.690;2022-11-15T10:00:44;12.05;;;10.38;;
16139;SDS011;8175;49.326;12.690;2022-11-15T10:03:14;10.70;;;9.48;;
16139;SDS011;8175;49.326;12.690;2022-11-15T10:08:20;6.65;;;5.35;;
16139;SDS011;8175;49.326;12.690;2022-11-15T10:11:07;5.70;;;5.20;;
16139;SDS011;8175;49.326;12.690;2022-11-15T10:13:37;4.07;;;3.67;;
16139;SDS011;8175;49.326;12.690;2022-11-15T10:16:17;3.80;;;3.38;;
16139;SDS011;8175;49.326;12.690;2022-11-15T10:22:07;6.32;;;5.68;;
16139;SDS011;8175;49.326;12.690;2022-11-15T10:24:43;7.97;;;6.20;;
16139;SDS011;8175;49.326;12.690;2022-11-15T10:27:11;7.10;;;5.45;;
16139;SDS011;8175;49.326;12.690;2022-11-15T10:29:46;5.55;;;5.07;;
16139;SDS011;8175;49.326;12.690;2022-11-15T10:32:14;5.40;;;4.90;;
16139;SDS011;8175;49.326;12.690;2022-11-15T10:34:41;4.63;;;4.22;;
16139;SDS011;8175;49.326;12.690;2022-11-15T10:37:07;4.55;;;4.13;;
16139;SDS011;8175;49.326;12.690;2022-11-15T10:39:33;5.22;;;4.22;;
16139;SDS011;8175;49.326;12.690;2022-11-15T10:42:14;4.57;;;3.30;;
16139;SDS011;8175;49.326;12.690;2022-11-15T10:44:53;4.20;;;3.83;;
16139;SDS011;8175;49.326;12.690;2022-11-15T10:47:24;4.45;;;4.07;;
16139;SDS011;8175;49.326;12.690;2022-11-15T10:49:58;11.63;;;7.07;;
16139;SDS011;8175;49.326;12.690;2022-11-15T10:52:25;6.93;;;4.63;;
16139;SDS011;8175;49.326;12.690;2022-11-15T10:57:27;23.70;;;7.63;;
16139;SDS011;8175;49.326;12.690;2022-11-15T11:05:33;4.00;;;3.70;;
16139;SDS011;8175;49.326;12.690;2022-11-15T11:08:04;3.50;;;3.17;;
16139;SDS011;8175;49.326;12.690;2022-11-15T11:10:39;5.70;;;4.40;;
16139;SDS011;8175;49.326;12.690;2022-11-15T11:13:26;3.70;;;3.40;;
16139;SDS011;8175;49.326;12.690;2022-11-15T11:15:55;3.50;;;3.20;;
16139;SDS011;8175;49.326;12.690;2022-11-15T11:18:45;3.50;;;3.22;;
16139;SDS011;8175;49.326;12.690;2022-11-15T11:34:47;2.97;;;2.70;;
16139;SDS011;8175;49.326;12.690;2022-11-15T11:37:44;2.70;;;2.38;;
16139;SDS011;8175;49.326;12.690;2022-11-15T11:40:14;3.55;;;2.50;;
16139;SDS011;8175;49.326;12.690;2022-11-15T11:45:53;2.88;;;2.67;;
16139;SDS011;8175;49.326;12.690;2022-11-15T11:48:40;4.15;;;3.75;;
16139;SDS011;8175;49.326;12.690;2022-11-15T11:51:17;5.30;;;4.80;;
16139;SDS011;8175;49.326;12.690;2022-11-15T11:54:00;4.28;;;3.88;;
16139;SDS011;8175;49.326;12.690;2022-11-15T11:56:36;4.30;;;3.90;;
16139;SDS011;8175;49.326;12.690;2022-11-15T11:59:10;5.20;;;4.70;;
16139;SDS011;8175;49.326;12.690;2022-11-15T12:02:18;4.18;;;3.63;;
16139;SDS011;8175;49.326;12.690;2022-11-15T12:04:48;4.30;;;3.78;;
16139;SDS011;8175;49.326;12.690;2022-11-15T12:07:20;3.35;;;3.05;;
16139;SDS011;8175;49.326;12.690;2022-11-15T12:09:58;5.10;;;4.60;;
16139;SDS011;8175;49.326;12.690;2022-11-15T12:12:42;3.65;;;3.28;;
16139;SDS011;8175;49.326;12.690;2022-11-15T12:15:15;4.60;;;2.95;;
16139;SDS011;8175;49.326;12.690;2022-11-15T12:17:51;4.35;;;3.95;;
16139;SDS011;8175;49.326;12.690;2022-11-15T12:20:18;3.22;;;2.92;;
16139;SDS011;8175;49.326;12.690;2022-11-15T12:22:52;4.38;;;3.10;;
16139;SDS011;8175;49.326;12.690;2022-11-15T12:34:01;4.50;;;3.45;;
16139;SDS011;8175;49.326;12.690;2022-11-15T12:36:40;3.90;;;3.65;;
16139;SDS011;8175;49.326;12.690;2022-11-15T12:39:08;4.93;;;4.53;;
16139;SDS011;8175;49.326;12.690;2022-11-15T12:41:39;5.55;;;5.05;;
16139;SDS011;8175;49.326;12.690;2022-11-15T13:02:41;5.05;;;4.57;;
16139;SDS011;8175;49.326;12.690;2022-11-15T13:17:39;18.05;;;10.68;;
16139;SDS011;8175;49.326;12.690;2022-11-15T13:28:11;25.30;;;18.63;;
16139;SDS011;8175;49.326;12.690;2022-11-15T13:33:19;28.38;;;16.88;;
16139;SDS011;8175;49.326;12.690;2022-11-15T13:35:51;15.02;;;11.13;;
16139;SDS011;8175;49.326;12.690;2022-11-15T13:38:29;35.17;;;20.13;;
16139;SDS011;8175;49.326;12.690;2022-11-15T13:40:57;30.30;;;18.03;;
16139;SDS011;8175;49.326;12.690;2022-11-15T13:43:36;11.00;;;9.90;;
16139;SDS011;8175;49.326;12.690;2022-11-15T13:46:18;7.90;;;7.20;;
16139;SDS011;8175;49.326;12.690;2022-11-15T13:49:00;7.50;;;6.67;;
16139;SDS011;8175;49.326;12.690;2022-11-15T13:51:36;5.60;;;5.10;;
16139;SDS011;8175;49.326;12.690;2022-11-15T13:56:37;5.50;;;5.00;;
16139;SDS011;8175;49.326;12.690;2022-11-15T13:59:10;5.03;;;4.60;;
16139;SDS011;8175;49.326;12.690;2022-11-15T14:01:58;6.63;;;6.03;;
16139;SDS011;8175;49.326;12.690;2022-11-15T14:04:27;6.73;;;6.07;;
16139;SDS011;8175;49.326;12.690;2022-11-15T14:06:58;6.67;;;6.07;;
16139;SDS011;8175;49.326;12.690;2022-11-15T14:11:56;6.90;;;6.20;;
16139;SDS011;8175;49.326;12.690;2022-11-15T14:14:25;6.13;;;5.30;;
16139;SDS011;8175;49.326;12.690;2022-11-15T14:16:53;20.30;;;13.33;;
16139;SDS011;8175;49.326;12.690;2022-11-15T14:24:33;15.57;;;10.87;;
16139;SDS011;8175;49.326;12.690;2022-11-15T14:30:00;22.10;;;14.00;;
16139;SDS011;8175;49.326;12.690;2022-11-15T14:32:27;22.93;;;14.53;;
16139;SDS011;8175;49.326;12.690;2022-11-15T14:34:56;43.80;;;22.63;;
16139;SDS011;8175;49.326;12.690;2022-11-15T14:37:29;93.70;;;42.43;;
16139;SDS011;8175;49.326;12.690;2022-11-15T14:39:58;11.13;;;8.03;;
16139;SDS011;8175;49.326;12.690;2022-11-15T14:42:24;12.20;;;9.07;;
16139;SDS011;8175;49.326;12.690;2022-11-15T14:44:50;8.97;;;7.23;;
16139;SDS011;8175;49.326;12.690;2022-11-15T14:47:16;9.40;;;7.27;;
16139;SDS011;8175;49.326;12.690;2022-11-15T14:49:42;11.20;;;9.07;;
16139;SDS011;8175;49.326;12.690;2022-11-15T14:54:49;8.97;;;7.63;;
16139;SDS011;8175;49.326;12.690;2022-11-15T14:57:15;10.33;;;9.17;;
16139;SDS011;8175;49.326;12.690;2022-11-15T14:59:41;8.17;;;7.10;;
16139;SDS011;8175;49.326;12.690;2022-11-15T15:02:40;10.23;;;7.97;;
16139;SDS011;8175;49.326;12.690;2022-11-15T15:04:58;11.23;;;8.47;;
16139;SDS011;8175;49.326;12.690;2022-11-15T15:07:27;12.20;;;8.17;;
16139;SDS011;8175;49.326;12.690;2022-11-15T15:09:53;8.80;;;7.27;;
16139;SDS011;8175;49.326;12.690;2022-11-15T15:12:22;10.20;;;7.90;;
16139;SDS011;8175;49.326;12.690;2022-11-15T15:14:48;9.90;;;8.00;;
16139;SDS011;8175;49.326;12.690;2022-11-15T15:17:16;8.00;;;7.20;;
16139;SDS011;8175;49.326;12.690;2022-11-15T15:19:42;13.10;;;9.77;;
16139;SDS011;8175;49.326;12.690;2022-11-15T15:22:18;16.37;;;12.53;;
16139;SDS011;8175;49.326;12.690;2022-11-15T15:24:47;18.10;;;13.33;;
16139;SDS011;8175;49.326;12.690;2022-11-15T15:27:12;10.07;;;7.97;;
16139;SDS011;8175;49.326;12.690;2022-11-15T15:29:38;44.07;;;29.80;;
16139;SDS011;8175;49.326;12.690;2022-11-15T15:32:04;17.77;;;12.70;;
16139;SDS011;8175;49.326;12.690;2022-11-15T15:34:30;30.23;;;20.80;;
16139;SDS011;8175;49.326;12.690;2022-11-15T15:37:12;32.73;;;23.43;;
16139;SDS011;8175;49.326;12.690;2022-11-15T15:39:53;25.97;;;21.40;;
16139;SDS011;8175;49.326;12.690;2022-11-15T15:42:20;24.73;;;18.20;;
16139;SDS011;8175;49.326;12.690;2022-11-15T15:44:47;14.57;;;11.73;;
16139;SDS011;8175;49.326;12.690;2022-11-15T15:47:13;12.60;;;11.27;;
16139;SDS011;8175;49.326;12.690;2022-11-15T15:49:44;11.40;;;9.40;;
16139;SDS011;8175;49.326;12.690;2022-11-15T15:52:10;14.63;;;11.30;;
16139;SDS011;8175;49.326;12.690;2022-11-15T15:54:36;14.90;;;10.70;;
16139;SDS011;8175;49.326;12.690;2022-11-15T15:57:02;16.07;;;13.03;;
16139;SDS011;8175;49.326;12.690;2022-11-15T15:59:29;18.70;;;15.13;;
16139;SDS011;8175;49.326;12.690;2022-11-15T16:01:56;17.80;;;12.83;;
16139;SDS011;8175;49.326;12.690;2022-11-15T16:04:22;15.83;;;11.33;;
16139;SDS011;8175;49.326;12.690;2022-11-15T16:06:48;17.57;;;11.13;;
16139;SDS011;8175;49.326;12.690;2022-11-15T16:09:17;16.83;;;13.07;;
16139;SDS011;8175;49.326;12.690;2022-11-15T16:12:04;15.43;;;11.27;;
16139;SDS011;8175;49.326;12.690;2022-11-15T16:14:30;13.67;;;9.57;;
16139;SDS011;8175;49.326;12.690;2022-11-15T16:16:56;11.90;;;8.33;;
16139;SDS011;8175;49.326;12.690;2022-11-15T16:19:22;13.40;;;8.90;;
16139;SDS011;8175;49.326;12.690;2022-11-15T16:21:48;12.03;;;9.13;;
16139;SDS011;8175;49.326;12.690;2022-11-15T16:24:13;13.93;;;10.07;;
16139;SDS011;8175;49.326;12.690;2022-11-15T16:26:39;14.20;;;11.10;;
16139;SDS011;8175;49.326;12.690;2022-11-15T16:29:05;12.73;;;9.40;;
16139;SDS011;8175;49.326;12.690;2022-11-15T16:31:31;11.37;;;9.10;;
16139;SDS011;8175;49.326;12.690;2022-11-15T16:33:57;14.20;;;9.80;;
16139;SDS011;8175;49.326;12.690;2022-11-15T16:36:26;15.30;;;10.13;;
16139;SDS011;8175;49.326;12.690;2022-11-15T16:38:54;16.23;;;10.73;;
16139;SDS011;8175;49.326;12.690;2022-11-15T16:41:20;16.57;;;12.30;;
16139;SDS011;8175;49.326;12.690;2022-11-15T16:43:45;23.40;;;14.97;;
16139;SDS011;8175;49.326;12.690;2022-11-15T16:46:13;18.47;;;14.07;;
16139;SDS011;8175;49.326;12.690;2022-11-15T16:48:46;22.83;;;15.40;;
16139;SDS011;8175;49.326;12.690;2022-11-15T16:51:12;19.90;;;14.80;;
16139;SDS011;8175;49.326;12.690;2022-11-15T16:53:38;22.47;;;15.50;;
16139;SDS011;8175;49.326;12.690;2022-11-15T16:56:12;107.17;;;55.13;;
16139;SDS011;8175;49.326;12.690;2022-11-15T16:58:44;102.93;;;55.00;;
16139;SDS011;8175;49.326;12.690;2022-11-15T17:01:15;83.07;;;41.43;;
16139;SDS011;8175;49.326;12.690;2022-11-15T17:03:51;44.53;;;25.90;;
16139;SDS011;8175;49.326;12.690;2022-11-15T17:06:18;34.33;;;21.37;;
16139;SDS011;8175;49.326;12.690;2022-11-15T17:08:44;34.73;;;21.27;;